sensor_id;sensor_type;location;lat;lon;timestamp;pressure;altitude;pressure_sealevel;temperature;humidity
56402;BME280;42299;35.160;26.100;2023-12-22T00:04:36;100371.63;;;14.71;100.00
56402;BME280;42299;35.160;26.100;2023-12-22T00:09:59;100379.81;;;14.44;100.00
56402;BME280;42299;35.160;26.100;2023-12-22T00:15:21;100381.59;;;14.37;100.00
56402;BME280;42299;35.160;26.100;2023-12-22T00:20:45;100375.38;;;14.36;100.00
56402;BME280;42299;35.160;26.100;2023-12-22T00:26:07;100385.03;;;14.51;100.00
56402;BME280;42299;35.160;26.100;2023-12-22T00:31:30;100359.53;;;14.21;100.00
56402;BME280;42299;35.160;26.100;2023-12-22T00:36:54;100362.25;;;14.05;100.00
56402;BME280;42299;35.160;26.100;2023-12-22T00:42:16;100369.19;;;14.33;100.00
56402;BME280;42299;35.160;26.100;2023-12-22T00:47:38;100366.63;;;14.18;100.00
56402;BME280;42299;35.160;26.100;2023-12-22T00:53:03;100381.78;;;13.98;100.00
56402;BME280;42299;35.160;26.100;2023-12-22T00:58:26;100384.44;;;13.94;100.00
56402;BME280;42299;35.160;26.100;2023-12-22T01:03:48;100387.03;;;14.08;100.00
56402;BME280;42299;35.160;26.100;2023-12-22T01:09:12;100378.19;;;14.06;100.00
56402;BME280;42299;35.160;26.100;2023-12-22T01:14:35;100381.78;;;13.93;100.00
56402;BME280;42299;35.160;26.100;2023-12-22T01:19:58;100365.06;;;13.77;100.00
56402;BME280;42299;35.160;26.100;2023-12-22T01:25:22;100360.63;;;13.79;100.00
56402;BME280;42299;35.160;26.100;2023-12-22T01:30:44;100355.28;;;13.90;100.00
56402;BME280;42299;35.160;26.100;2023-12-22T01:36:07;100341.13;;;13.86;100.00
56402;BME280;42299;35.160;26.100;2023-12-22T01:41:30;100350.91;;;13.77;100.00
56402;BME280;42299;35.160;26.100;2023-12-22T01:46:53;100336.78;;;13.66;100.00
56402;BME280;42299;35.160;26.100;2023-12-22T01:52:16;100343.94;;;13.57;100.00
56402;BME280;42299;35.160;26.100;2023-12-22T01:57:41;100334.19;;;13.58;100.00
56402;BME280;42299;35.160;26.100;2023-12-22T02:03:04;100328.88;;;13.55;100.00
56402;BME280;42299;35.160;26.100;2023-12-22T02:08:28;100326.25;;;13.53;100.00
56402;BME280;42299;35.160;26.100;2023-12-22T02:13:55;100324.50;;;13.40;100.00
56402;BME280;42299;35.160;26.100;2023-12-22T02:19:26;100312.16;;;13.36;100.00
56402;BME280;42299;35.160;26.100;2023-12-22T02:24:50;100309.56;;;13.24;100.00
56402;BME280;42299;35.160;26.100;2023-12-22T02:30:15;100301.59;;;13.21;100.00
56402;BME280;42299;35.160;26.100;2023-12-22T02:35:42;100296.31;;;13.06;100.00
56402;BME280;42299;35.160;26.100;2023-12-22T02:41:08;100289.28;;;12.90;100.00
56402;BME280;42299;35.160;26.100;2023-12-22T02:46:30;100286.66;;;12.64;100.00
56402;BME280;42299;35.160;26.100;2023-12-22T02:51:53;100300.75;;;12.61;100.00
56402;BME280;42299;35.160;26.100;2023-12-22T02:57:16;100291.94;;;12.68;100.00
56402;BME280;42299;35.160;26.100;2023-12-22T03:02:39;100281.31;;;12.81;100.00
56402;BME280;42299;35.160;26.100;2023-12-22T03:08:01;100284.88;;;12.75;100.00
56402;BME280;42299;35.160;26.100;2023-12-22T03:13:25;100278.69;;;12.77;100.00
56402;BME280;42299;35.160;26.100;2023-12-22T03:18:47;100271.63;;;12.67;100.00
56402;BME280;42299;35.160;26.100;2023-12-22T03:24:10;100274.28;;;12.49;100.00
56402;BME280;42299;35.160;26.100;2023-12-22T03:29:34;100275.19;;;12.33;100.00
56402;BME280;42299;35.160;26.100;2023-12-22T03:34:56;100259.28;;;12.22;100.00
56402;BME280;42299;35.160;26.100;2023-12-22T03:40:18;100275.16;;;12.21;100.00
56402;BME280;42299;35.160;26.100;2023-12-22T03:45:42;100274.28;;;12.23;100.00
56402;BME280;42299;35.160;26.100;2023-12-22T03:51:04;100281.34;;;12.18;100.00
56402;BME280;42299;35.160;26.100;2023-12-22T03:56:27;100285.78;;;12.39;100.00
56402;BME280;42299;35.160;26.100;2023-12-22T04:01:54;100288.41;;;12.31;100.00
56402;BME280;42299;35.160;26.100;2023-12-22T04:07:18;100295.47;;;12.45;100.00
56402;BME280;42299;35.160;26.100;2023-12-22T04:12:40;100293.69;;;12.48;100.00
56402;BME280;42299;35.160;26.100;2023-12-22T04:18:04;100289.31;;;12.33;100.00
56402;BME280;42299;35.160;26.100;2023-12-22T04:23:27;100295.44;;;12.11;100.00
56402;BME280;42299;35.160;26.100;2023-12-22T04:28:49;100295.41;;;12.04;100.00
56402;BME280;42299;35.160;26.100;2023-12-22T04:34:14;100298.03;;;11.81;100.00
56402;BME280;42299;35.160;26.100;2023-12-22T04:39:36;100301.63;;;12.13;100.00
56402;BME280;42299;35.160;26.100;2023-12-22T04:44:59;100299.00;;;12.27;100.00
56402;BME280;42299;35.160;26.100;2023-12-22T04:50:23;100289.28;;;12.17;100.00
56402;BME280;42299;35.160;26.100;2023-12-22T04:55:45;100296.28;;;12.03;100.00
56402;BME280;42299;35.160;26.100;2023-12-22T05:01:08;100299.81;;;11.97;100.00
56402;BME280;42299;35.160;26.100;2023-12-22T05:06:31;100306.88;;;11.98;100.00
56402;BME280;42299;35.160;26.100;2023-12-22T05:11:54;100313.88;;;11.82;100.00
56402;BME280;42299;35.160;26.100;2023-12-22T05:17:16;100318.28;;;11.74;100.00
56402;BME280;42299;35.160;26.100;2023-12-22T05:22:40;100319.09;;;11.70;100.00
56402;BME280;42299;35.160;26.100;2023-12-22T05:28:03;100298.91;;;11.86;100.00
56402;BME280;42299;35.160;26.100;2023-12-22T05:33:26;100293.63;;;11.92;100.00
56402;BME280;42299;35.160;26.100;2023-12-22T05:38:49;100311.34;;;12.19;100.00
56402;BME280;42299;35.160;26.100;2023-12-22T05:44:12;100318.38;;;12.12;100.00
56402;BME280;42299;35.160;26.100;2023-12-22T05:49:34;100321.94;;;12.26;100.00
56402;BME280;42299;35.160;26.100;2023-12-22T05:54:58;100319.28;;;12.34;100.00
56402;BME280;42299;35.160;26.100;2023-12-22T06:00:20;100327.25;;;12.49;100.00
56402;BME280;42299;35.160;26.100;2023-12-22T06:05:43;100310.50;;;12.65;100.00
56402;BME280;42299;35.160;26.100;2023-12-22T06:11:07;100314.88;;;12.95;100.00
56402;BME280;42299;35.160;26.100;2023-12-22T06:16:30;100306.91;;;12.88;100.00
56402;BME280;42299;35.160;26.100;2023-12-22T06:21:52;100314.38;;;14.24;100.00
56402;BME280;42299;35.160;26.100;2023-12-22T06:27:16;100322.75;;;17.86;100.00
56402;BME280;42299;35.160;26.100;2023-12-22T06:32:39;100313.16;;;20.47;100.00
56402;BME280;42299;35.160;26.100;2023-12-22T06:38:02;100312.13;;;21.55;97.81
56402;BME280;42299;35.160;26.100;2023-12-22T06:43:27;100310.81;;;20.64;99.23
56402;BME280;42299;35.160;26.100;2023-12-22T06:48:50;100299.00;;;20.14;100.00
56402;BME280;42299;35.160;26.100;2023-12-22T06:54:12;100306.53;;;20.85;99.67
56402;BME280;42299;35.160;26.100;2023-12-22T06:59:36;100304.91;;;22.05;85.24
56402;BME280;42299;35.160;26.100;2023-12-22T07:05:03;100305.97;;;23.10;80.55
56402;BME280;42299;35.160;26.100;2023-12-22T07:10:46;100306.84;;;25.53;62.38
56402;BME280;42299;35.160;26.100;2023-12-22T07:16:11;100319.13;;;26.57;56.28
56402;BME280;42299;35.160;26.100;2023-12-22T07:21:34;100315.47;;;26.09;53.23
56402;BME280;42299;35.160;26.100;2023-12-22T07:26:56;100330.22;;;26.04;54.14
56402;BME280;42299;35.160;26.100;2023-12-22T07:32:20;100336.78;;;27.55;48.69
56402;BME280;42299;35.160;26.100;2023-12-22T07:37:42;100323.44;;;27.81;45.09
56402;BME280;42299;35.160;26.100;2023-12-22T07:43:05;100325.53;;;28.46;42.32
56402;BME280;42299;35.160;26.100;2023-12-22T07:48:28;100322.72;;;28.48;41.19
56402;BME280;42299;35.160;26.100;2023-12-22T07:53:51;100329.81;;;28.36;40.65
56402;BME280;42299;35.160;26.100;2023-12-22T07:59:13;100328.28;;;28.87;38.96
56402;BME280;42299;35.160;26.100;2023-12-22T08:04:38;100343.22;;;28.39;38.54
56402;BME280;42299;35.160;26.100;2023-12-22T08:10:00;100332.38;;;28.66;38.22
56402;BME280;42299;35.160;26.100;2023-12-22T08:15:23;100330.53;;;29.08;37.63
56402;BME280;42299;35.160;26.100;2023-12-22T08:20:46;100326.50;;;29.53;36.44
56402;BME280;42299;35.160;26.100;2023-12-22T08:26:10;100325.28;;;30.20;35.65
56402;BME280;42299;35.160;26.100;2023-12-22T08:31:32;100320.13;;;30.41;35.23
56402;BME280;42299;35.160;26.100;2023-12-22T08:36:56;100321.66;;;30.81;34.92
56402;BME280;42299;35.160;26.100;2023-12-22T08:42:19;100305.63;;;31.01;35.18
56402;BME280;42299;35.160;26.100;2023-12-22T08:47:42;100306.50;;;31.01;33.73
56402;BME280;42299;35.160;26.100;2023-12-22T08:53:07;100312.41;;;31.43;33.99
56402;BME280;42299;35.160;26.100;2023-12-22T08:58:29;100299.72;;;31.99;32.51
56402;BME280;42299;35.160;26.100;2023-12-22T09:03:54;100290.00;;;32.62;31.71
56402;BME280;42299;35.160;26.100;2023-12-22T09:09:18;100283.94;;;33.22;31.08
56402;BME280;42299;35.160;26.100;2023-12-22T09:14:42;100268.25;;;33.24;30.93
56402;BME280;42299;35.160;26.100;2023-12-22T09:20:06;100250.66;;;32.09;31.13
56402;BME280;42299;35.160;26.100;2023-12-22T09:25:31;100240.81;;;28.13;33.93
56402;BME280;42299;35.160;26.100;2023-12-22T09:30:53;100222.34;;;29.51;32.21
56402;BME280;42299;35.160;26.100;2023-12-22T09:36:16;100230.28;;;29.66;31.65
56402;BME280;42299;35.160;26.100;2023-12-22T09:41:41;100212.50;;;29.86;32.80
56402;BME280;42299;35.160;26.100;2023-12-22T09:47:06;100199.00;;;28.96;36.25
56402;BME280;42299;35.160;26.100;2023-12-22T09:52:30;100188.63;;;27.38;39.08
56402;BME280;42299;35.160;26.100;2023-12-22T09:57:59;100181.56;;;27.36;38.92
56402;BME280;42299;35.160;26.100;2023-12-22T10:03:29;100189.13;;;26.57;41.87
56402;BME280;42299;35.160;26.100;2023-12-22T10:08:53;100180.28;;;24.76;45.87
56402;BME280;42299;35.160;26.100;2023-12-22T10:14:18;100179.72;;;24.70;48.77
56402;BME280;42299;35.160;26.100;2023-12-22T10:19:43;100186.50;;;28.81;39.18
56402;BME280;42299;35.160;26.100;2023-12-22T10:25:06;100174.19;;;30.49;35.24
56402;BME280;42299;35.160;26.100;2023-12-22T10:30:34;100159.06;;;31.71;33.33
56402;BME280;42299;35.160;26.100;2023-12-22T10:35:58;100156.69;;;31.44;32.28
56402;BME280;42299;35.160;26.100;2023-12-22T10:41:21;100143.56;;;31.16;33.58
56402;BME280;42299;35.160;26.100;2023-12-22T10:46:47;100150.25;;;31.45;33.04
56402;BME280;42299;35.160;26.100;2023-12-22T10:52:15;100145.38;;;31.04;32.50
56402;BME280;42299;35.160;26.100;2023-12-22T10:57:39;100145.06;;;28.90;34.14
56402;BME280;42299;35.160;26.100;2023-12-22T11:03:06;100119.00;;;28.48;34.69
56402;BME280;42299;35.160;26.100;2023-12-22T11:08:30;100108.06;;;28.23;34.77
56402;BME280;42299;35.160;26.100;2023-12-22T11:13:55;100098.13;;;28.88;33.46
56402;BME280;42299;35.160;26.100;2023-12-22T11:19:27;100070.66;;;28.40;34.28
56402;BME280;42299;35.160;26.100;2023-12-22T11:25:10;100049.53;;;27.51;35.81
56402;BME280;42299;35.160;26.100;2023-12-22T11:30:41;100043.28;;;26.65;37.70
56402;BME280;42299;35.160;26.100;2023-12-22T11:36:11;100030.88;;;26.91;37.71
56402;BME280;42299;35.160;26.100;2023-12-22T11:41:35;100029.78;;;26.93;37.59
56402;BME280;42299;35.160;26.100;2023-12-22T11:47:06;100044.19;;;25.76;39.27
56402;BME280;42299;35.160;26.100;2023-12-22T11:52:30;100064.19;;;25.09;41.34
56402;BME280;42299;35.160;26.100;2023-12-22T11:57:53;100060.44;;;24.79;42.65
56402;BME280;42299;35.160;26.100;2023-12-22T12:03:17;100066.25;;;24.71;43.46
56402;BME280;42299;35.160;26.100;2023-12-22T12:08:42;100061.59;;;24.23;44.53
56402;BME280;42299;35.160;26.100;2023-12-22T12:14:09;100060.75;;;23.69;45.66
56402;BME280;42299;35.160;26.100;2023-12-22T12:19:34;100046.78;;;23.61;46.40
56402;BME280;42299;35.160;26.100;2023-12-22T12:24:58;100051.13;;;23.45;47.35
56402;BME280;42299;35.160;26.100;2023-12-22T12:30:22;100050.84;;;23.32;47.94
56402;BME280;42299;35.160;26.100;2023-12-22T12:35:46;100049.53;;;23.41;48.58
56402;BME280;42299;35.160;26.100;2023-12-22T12:41:11;100049.97;;;23.32;48.98
56402;BME280;42299;35.160;26.100;2023-12-22T12:46:34;100051.22;;;23.25;49.54
56402;BME280;42299;35.160;26.100;2023-12-22T12:51:57;100038.84;;;23.21;49.98
56402;BME280;42299;35.160;26.100;2023-12-22T12:57:23;100040.94;;;23.33;50.03
56402;BME280;42299;35.160;26.100;2023-12-22T13:02:46;100043.00;;;23.28;51.16
56402;BME280;42299;35.160;26.100;2023-12-22T13:08:11;100047.69;;;22.85;54.62
56402;BME280;42299;35.160;26.100;2023-12-22T13:13:42;100049.88;;;22.57;54.88
56402;BME280;42299;35.160;26.100;2023-12-22T13:19:05;100049.91;;;22.16;55.74
56402;BME280;42299;35.160;26.100;2023-12-22T13:24:28;100071.03;;;21.82;57.16
56402;BME280;42299;35.160;26.100;2023-12-22T13:29:53;100050.00;;;21.50;63.02
56402;BME280;42299;35.160;26.100;2023-12-22T13:35:16;100062.09;;;21.15;68.45
56402;BME280;42299;35.160;26.100;2023-12-22T13:40:45;100067.88;;;20.81;72.08
56402;BME280;42299;35.160;26.100;2023-12-22T13:46:09;100050.41;;;20.46;79.53
56402;BME280;42299;35.160;26.100;2023-12-22T13:51:39;100033.25;;;20.25;84.68
56402;BME280;42299;35.160;26.100;2023-12-22T13:57:02;100034.66;;;20.10;88.75
56402;BME280;42299;35.160;26.100;2023-12-22T14:02:26;100046.28;;;19.84;93.98
56402;BME280;42299;35.160;26.100;2023-12-22T14:07:50;100051.03;;;19.76;95.70
56402;BME280;42299;35.160;26.100;2023-12-22T14:13:13;100042.06;;;19.51;98.05
56402;BME280;42299;35.160;26.100;2023-12-22T14:18:40;100046.16;;;19.33;97.92
56402;BME280;42299;35.160;26.100;2023-12-22T14:24:03;100047.03;;;19.34;98.65
56402;BME280;42299;35.160;26.100;2023-12-22T14:29:25;100051.56;;;19.32;100.00
56402;BME280;42299;35.160;26.100;2023-12-22T14:34:49;100050.03;;;19.23;100.00
56402;BME280;42299;35.160;26.100;2023-12-22T14:40:12;100047.06;;;19.04;100.00
56402;BME280;42299;35.160;26.100;2023-12-22T14:45:35;100041.53;;;18.81;100.00
56402;BME280;42299;35.160;26.100;2023-12-22T14:50:59;100042.34;;;18.52;100.00
56402;BME280;42299;35.160;26.100;2023-12-22T14:56:22;100042.91;;;18.32;100.00
56402;BME280;42299;35.160;26.100;2023-12-22T15:01:44;100054.19;;;18.11;100.00
56402;BME280;42299;35.160;26.100;2023-12-22T15:07:08;100043.59;;;17.73;100.00
56402;BME280;42299;35.160;26.100;2023-12-22T15:12:31;100032.38;;;17.20;100.00
56402;BME280;42299;35.160;26.100;2023-12-22T15:17:57;100025.22;;;16.84;100.00
56402;BME280;42299;35.160;26.100;2023-12-22T15:23:21;100028.53;;;16.53;100.00
56402;BME280;42299;35.160;26.100;2023-12-22T15:28:43;100031.50;;;16.38;100.00
56402;BME280;42299;35.160;26.100;2023-12-22T15:34:06;100027.78;;;16.47;100.00
56402;BME280;42299;35.160;26.100;2023-12-22T15:39:30;100024.31;;;16.42;100.00
56402;BME280;42299;35.160;26.100;2023-12-22T15:44:52;100020.34;;;16.18;100.00
56402;BME280;42299;35.160;26.100;2023-12-22T15:50:15;100030.47;;;15.99;100.00
56402;BME280;42299;35.160;26.100;2023-12-22T15:55:39;100028.72;;;15.97;100.00
56402;BME280;42299;35.160;26.100;2023-12-22T16:01:01;100035.47;;;16.16;100.00
56402;BME280;42299;35.160;26.100;2023-12-22T16:06:24;100051.66;;;16.51;100.00
56402;BME280;42299;35.160;26.100;2023-12-22T16:11:48;100056.88;;;16.56;100.00
56402;BME280;42299;35.160;26.100;2023-12-22T16:17:11;100063.03;;;16.59;100.00
56402;BME280;42299;35.160;26.100;2023-12-22T16:22:33;100077.81;;;16.76;100.00
56402;BME280;42299;35.160;26.100;2023-12-22T16:27:58;100069.66;;;16.83;100.00
56402;BME280;42299;35.160;26.100;2023-12-22T16:33:21;100059.88;;;16.85;100.00
56402;BME280;42299;35.160;26.100;2023-12-22T16:38:44;100079.81;;;16.66;100.00
56402;BME280;42299;35.160;26.100;2023-12-22T16:44:07;100084.25;;;16.67;100.00
56402;BME280;42299;35.160;26.100;2023-12-22T16:49:30;100104.72;;;16.63;100.00
56402;BME280;42299;35.160;26.100;2023-12-22T16:54:52;100089.75;;;16.55;100.00
56402;BME280;42299;35.160;26.100;2023-12-22T17:00:21;100091.91;;;16.36;100.00
56402;BME280;42299;35.160;26.100;2023-12-22T17:05:44;100102.78;;;16.24;100.00
56402;BME280;42299;35.160;26.100;2023-12-22T17:11:06;100100.78;;;15.87;100.00
56402;BME280;42299;35.160;26.100;2023-12-22T17:16:30;100128.72;;;15.58;100.00
56402;BME280;42299;35.160;26.100;2023-12-22T17:21:55;100144.75;;;15.50;100.00
56402;BME280;42299;35.160;26.100;2023-12-22T17:27:17;100140.59;;;15.34;100.00
56402;BME280;42299;35.160;26.100;2023-12-22T17:32:41;100151.41;;;15.20;100.00
56402;BME280;42299;35.160;26.100;2023-12-22T17:38:04;100144.66;;;14.92;100.00
56402;BME280;42299;35.160;26.100;2023-12-22T17:43:26;100147.47;;;14.80;100.00
56402;BME280;42299;35.160;26.100;2023-12-22T17:48:50;100145.97;;;14.54;100.00
56402;BME280;42299;35.160;26.100;2023-12-22T17:54:13;100159.41;;;14.42;100.00
56402;BME280;42299;35.160;26.100;2023-12-22T17:59:35;100171.00;;;14.27;100.00
56402;BME280;42299;35.160;26.100;2023-12-22T18:05:02;100173.66;;;14.27;100.00
56402;BME280;42299;35.160;26.100;2023-12-22T18:10:24;100184.06;;;14.52;100.00
56402;BME280;42299;35.160;26.100;2023-12-22T18:15:47;100168.19;;;14.49;100.00
56402;BME280;42299;35.160;26.100;2023-12-22T18:21:11;100175.44;;;14.27;100.00
56402;BME280;42299;35.160;26.100;2023-12-22T18:26:34;100176.31;;;14.27;100.00
56402;BME280;42299;35.160;26.100;2023-12-22T18:31:56;100174.53;;;14.25;100.00
56402;BME280;42299;35.160;26.100;2023-12-22T18:37:20;100193.25;;;14.11;100.00
56402;BME280;42299;35.160;26.100;2023-12-22T18:42:43;100204.78;;;14.10;100.00
56402;BME280;42299;35.160;26.100;2023-12-22T18:48:06;100190.72;;;13.96;100.00
56402;BME280;42299;35.160;26.100;2023-12-22T18:53:30;100196.19;;;13.76;100.00
56402;BME280;42299;35.160;26.100;2023-12-22T18:58:53;100194.41;;;13.78;100.00
56402;BME280;42299;35.160;26.100;2023-12-22T19:04:17;100194.44;;;13.71;100.00
56402;BME280;42299;35.160;26.100;2023-12-22T19:09:44;100195.41;;;13.54;100.00
56402;BME280;42299;35.160;26.100;2023-12-22T19:15:07;100192.84;;;13.39;100.00
56402;BME280;42299;35.160;26.100;2023-12-22T19:20:29;100211.31;;;13.54;100.00
56402;BME280;42299;35.160;26.100;2023-12-22T19:25:54;100202.63;;;13.31;100.00
56402;BME280;42299;35.160;26.100;2023-12-22T19:31:17;100212.41;;;13.15;100.00
56402;BME280;42299;35.160;26.100;2023-12-22T19:36:40;100200.78;;;13.42;100.00
56402;BME280;42299;35.160;26.100;2023-12-22T19:42:05;100199.72;;;13.74;100.00
56402;BME280;42299;35.160;26.100;2023-12-22T19:47:28;100195.34;;;13.70;100.00
56402;BME280;42299;35.160;26.100;2023-12-22T19:52:51;100191.03;;;13.49;100.00
56402;BME280;42299;35.160;26.100;2023-12-22T19:58:15;100198.06;;;13.53;100.00
56402;BME280;42299;35.160;26.100;2023-12-22T20:03:39;100189.25;;;13.49;100.00
56402;BME280;42299;35.160;26.100;2023-12-22T20:09:06;100173.28;;;13.65;100.00
56402;BME280;42299;35.160;26.100;2023-12-22T20:14:30;100197.91;;;13.79;100.00
56402;BME280;42299;35.160;26.100;2023-12-22T20:19:53;100197.94;;;13.76;100.00
56402;BME280;42299;35.160;26.100;2023-12-22T20:25:17;100194.50;;;13.65;100.00
56402;BME280;42299;35.160;26.100;2023-12-22T20:30:41;100189.31;;;13.40;100.00
56402;BME280;42299;35.160;26.100;2023-12-22T20:36:04;100202.47;;;13.57;100.00
56402;BME280;42299;35.160;26.100;2023-12-22T20:41:27;100184.75;;;13.65;100.00
56402;BME280;42299;35.160;26.100;2023-12-22T20:46:51;100182.91;;;13.76;100.00
56402;BME280;42299;35.160;26.100;2023-12-22T20:52:14;100199.84;;;13.57;100.00
56402;BME280;42299;35.160;26.100;2023-12-22T20:57:37;100199.88;;;13.48;100.00
56402;BME280;42299;35.160;26.100;2023-12-22T21:03:01;100199.88;;;13.46;100.00
56402;BME280;42299;35.160;26.100;2023-12-22T21:08:24;100192.88;;;13.33;100.00
56402;BME280;42299;35.160;26.100;2023-12-22T21:13:47;100199.94;;;13.34;100.00
56402;BME280;42299;35.160;26.100;2023-12-22T21:19:11;100217.50;;;13.55;100.00
56402;BME280;42299;35.160;26.100;2023-12-22T21:24:33;100213.97;;;13.57;100.00
56402;BME280;42299;35.160;26.100;2023-12-22T21:29:56;100209.53;;;13.63;100.00
56402;BME280;42299;35.160;26.100;2023-12-22T21:35:21;100210.28;;;13.80;100.00
56402;BME280;42299;35.160;26.100;2023-12-22T21:40:43;100214.53;;;14.08;100.00
56402;BME280;42299;35.160;26.100;2023-12-22T21:46:05;100230.34;;;14.20;100.00
56402;BME280;42299;35.160;26.100;2023-12-22T21:51:30;100228.53;;;14.27;100.00
56402;BME280;42299;35.160;26.100;2023-12-22T21:56:52;100229.25;;;14.49;100.00
56402;BME280;42299;35.160;26.100;2023-12-22T22:02:16;100233.47;;;14.71;100.00
56402;BME280;42299;35.160;26.100;2023-12-22T22:07:40;100239.38;;;14.99;100.00
56402;BME280;42299;35.160;26.100;2023-12-22T22:13:02;100257.84;;;15.12;100.00
56402;BME280;42299;35.160;26.100;2023-12-22T22:18:26;100242.78;;;15.10;100.00
56402;BME280;42299;35.160;26.100;2023-12-22T22:23:50;100215.94;;;15.33;100.00
56402;BME280;42299;35.160;26.100;2023-12-22T22:29:14;100238.59;;;15.66;100.00
56402;BME280;42299;35.160;26.100;2023-12-22T22:34:37;100242.03;;;15.74;100.00
56402;BME280;42299;35.160;26.100;2023-12-22T22:40:02;100223.84;;;16.05;100.00
56402;BME280;42299;35.160;26.100;2023-12-22T22:45:26;100251.06;;;16.22;100.00
56402;BME280;42299;35.160;26.100;2023-12-22T22:50:48;100250.06;;;16.29;100.00
56402;BME280;42299;35.160;26.100;2023-12-22T22:56:12;100254.19;;;16.48;100.00
56402;BME280;42299;35.160;26.100;2023-12-22T23:01:35;100265.78;;;16.47;100.00
56402;BME280;42299;35.160;26.100;2023-12-22T23:06:57;100261.44;;;16.40;100.00
56402;BME280;42299;35.160;26.100;2023-12-22T23:12:21;100257.94;;;16.37;100.00
56402;BME280;42299;35.160;26.100;2023-12-22T23:17:44;100254.06;;;16.56;100.00
56402;BME280;42299;35.160;26.100;2023-12-22T23:23:06;100269.28;;;16.48;100.00
56402;BME280;42299;35.160;26.100;2023-12-22T23:28:31;100270.03;;;16.57;100.00
56402;BME280;42299;35.160;26.100;2023-12-22T23:33:54;100294.03;;;16.56;100.00
56402;BME280;42299;35.160;26.100;2023-12-22T23:39:16;100299.97;;;16.74;100.00
56402;BME280;42299;35.160;26.100;2023-12-22T23:44:40;100305.94;;;16.90;100.00
56402;BME280;42299;35.160;26.100;2023-12-22T23:50:04;100331.78;;;16.85;100.00
56402;BME280;42299;35.160;26.100;2023-12-22T23:55:27;100319.34;;;16.86;100.00
